sensor_id;sensor_type;location;lat;lon;timestamp;P1;durP1;ratioP1;P2;durP2;ratioP2
9809;SDS011;4944;52.514;13.192;2022-07-24T00:01:21;4.23;;;3.50;;
9809;SDS011;4944;52.514;13.192;2022-07-24T00:03:48;5.73;;;3.10;;
9809;SDS011;4944;52.514;13.192;2022-07-24T00:06:15;3.60;;;3.30;;
9809;SDS011;4944;52.514;13.192;2022-07-24T00:08:42;3.63;;;2.80;;
9809;SDS011;4944;52.514;13.192;2022-07-24T00:11:08;3.93;;;2.30;;
9809;SDS011;4944;52.514;13.192;2022-07-24T00:13:36;2.83;;;2.63;;
9809;SDS011;4944;52.514;13.192;2022-07-24T00:16:07;2.13;;;2.00;;
9809;SDS011;4944;52.514;13.192;2022-07-24T00:18:34;2.20;;;2.00;;
9809;SDS011;4944;52.514;13.192;2022-07-24T00:21:01;3.23;;;2.10;;
9809;SDS011;4944;52.514;13.192;2022-07-24T00:23:30;3.00;;;1.77;;
9809;SDS011;4944;52.514;13.192;2022-07-24T00:25:57;2.70;;;1.90;;
9809;SDS011;4944;52.514;13.192;2022-07-24T00:28:24;2.27;;;2.07;;
9809;SDS011;4944;52.514;13.192;2022-07-24T00:30:52;2.07;;;1.93;;
9809;SDS011;4944;52.514;13.192;2022-07-24T00:33:19;2.00;;;1.60;;
9809;SDS011;4944;52.514;13.192;2022-07-24T00:35:46;2.90;;;1.90;;
9809;SDS011;4944;52.514;13.192;2022-07-24T00:38:13;2.03;;;1.77;;
9809;SDS011;4944;52.514;13.192;2022-07-24T00:40:39;2.07;;;1.87;;
9809;SDS011;4944;52.514;13.192;2022-07-24T00:43:06;1.90;;;1.80;;
9809;SDS011;4944;52.514;13.192;2022-07-24T00:45:36;2.53;;;1.60;;
9809;SDS011;4944;52.514;13.192;2022-07-24T00:48:04;3.07;;;2.07;;
9809;SDS011;4944;52.514;13.192;2022-07-24T00:50:32;3.27;;;2.00;;
9809;SDS011;4944;52.514;13.192;2022-07-24T00:52:58;1.70;;;1.60;;
9809;SDS011;4944;52.514;13.192;2022-07-24T00:55:25;3.30;;;1.47;;
9809;SDS011;4944;52.514;13.192;2022-07-24T00:57:53;1.60;;;1.50;;
9809;SDS011;4944;52.514;13.192;2022-07-24T01:00:20;1.50;;;1.40;;
9809;SDS011;4944;52.514;13.192;2022-07-24T01:02:48;2.00;;;1.30;;
9809;SDS011;4944;52.514;13.192;2022-07-24T01:05:16;2.40;;;1.40;;
9809;SDS011;4944;52.514;13.192;2022-07-24T01:07:44;1.30;;;1.30;;
9809;SDS011;4944;52.514;13.192;2022-07-24T01:10:11;1.23;;;1.13;;
9809;SDS011;4944;52.514;13.192;2022-07-24T01:12:40;1.90;;;1.20;;
9809;SDS011;4944;52.514;13.192;2022-07-24T01:15:09;2.13;;;1.10;;
9809;SDS011;4944;52.514;13.192;2022-07-24T01:17:38;1.53;;;1.43;;
9809;SDS011;4944;52.514;13.192;2022-07-24T01:20:06;1.10;;;1.10;;
9809;SDS011;4944;52.514;13.192;2022-07-24T01:22:35;1.87;;;1.10;;
9809;SDS011;4944;52.514;13.192;2022-07-24T01:25:03;3.10;;;1.40;;
9809;SDS011;4944;52.514;13.192;2022-07-24T01:27:30;1.97;;;1.30;;
9809;SDS011;4944;52.514;13.192;2022-07-24T01:29:57;2.10;;;1.13;;
9809;SDS011;4944;52.514;13.192;2022-07-24T01:32:23;1.40;;;1.30;;
9809;SDS011;4944;52.514;13.192;2022-07-24T01:34:50;2.17;;;1.10;;
9809;SDS011;4944;52.514;13.192;2022-07-24T01:37:17;1.77;;;1.30;;
9809;SDS011;4944;52.514;13.192;2022-07-24T01:39:45;1.10;;;1.00;;
9809;SDS011;4944;52.514;13.192;2022-07-24T01:42:12;1.40;;;1.10;;
9809;SDS011;4944;52.514;13.192;2022-07-24T01:44:39;3.23;;;1.20;;
9809;SDS011;4944;52.514;13.192;2022-07-24T01:47:06;0.90;;;0.90;;
9809;SDS011;4944;52.514;13.192;2022-07-24T01:49:33;1.23;;;1.13;;
9809;SDS011;4944;52.514;13.192;2022-07-24T01:52:00;1.97;;;0.90;;
9809;SDS011;4944;52.514;13.192;2022-07-24T01:54:26;1.23;;;1.10;;
9809;SDS011;4944;52.514;13.192;2022-07-24T01:56:55;1.60;;;1.17;;
9809;SDS011;4944;52.514;13.192;2022-07-24T01:59:21;1.03;;;1.03;;
9809;SDS011;4944;52.514;13.192;2022-07-24T02:01:48;7.20;;;1.40;;
9809;SDS011;4944;52.514;13.192;2022-07-24T02:04:15;1.70;;;1.10;;
9809;SDS011;4944;52.514;13.192;2022-07-24T02:06:42;1.80;;;0.90;;
9809;SDS011;4944;52.514;13.192;2022-07-24T02:09:08;1.13;;;0.90;;
9809;SDS011;4944;52.514;13.192;2022-07-24T02:11:35;2.47;;;1.20;;
9809;SDS011;4944;52.514;13.192;2022-07-24T02:14:04;2.43;;;1.10;;
9809;SDS011;4944;52.514;13.192;2022-07-24T02:16:31;1.10;;;1.10;;
9809;SDS011;4944;52.514;13.192;2022-07-24T02:18:58;1.40;;;1.30;;
9809;SDS011;4944;52.514;13.192;2022-07-24T02:21:25;1.10;;;1.00;;
9809;SDS011;4944;52.514;13.192;2022-07-24T02:23:52;1.33;;;1.23;;
9809;SDS011;4944;52.514;13.192;2022-07-24T02:26:18;1.30;;;1.20;;
9809;SDS011;4944;52.514;13.192;2022-07-24T02:28:45;2.27;;;1.13;;
9809;SDS011;4944;52.514;13.192;2022-07-24T02:31:13;4.20;;;1.33;;
9809;SDS011;4944;52.514;13.192;2022-07-24T02:33:40;2.53;;;1.10;;
9809;SDS011;4944;52.514;13.192;2022-07-24T02:36:07;2.23;;;1.23;;
9809;SDS011;4944;52.514;13.192;2022-07-24T02:38:34;1.20;;;0.90;;
9809;SDS011;4944;52.514;13.192;2022-07-24T02:41:01;1.83;;;1.17;;
9809;SDS011;4944;52.514;13.192;2022-07-24T02:43:30;1.00;;;1.00;;
9809;SDS011;4944;52.514;13.192;2022-07-24T02:45:57;0.90;;;0.90;;
9809;SDS011;4944;52.514;13.192;2022-07-24T02:48:25;1.40;;;1.30;;
9809;SDS011;4944;52.514;13.192;2022-07-24T02:50:52;2.93;;;1.30;;
9809;SDS011;4944;52.514;13.192;2022-07-24T02:53:19;1.43;;;0.90;;
9809;SDS011;4944;52.514;13.192;2022-07-24T02:55:46;0.80;;;0.80;;
9809;SDS011;4944;52.514;13.192;2022-07-24T02:58:13;1.33;;;1.00;;
9809;SDS011;4944;52.514;13.192;2022-07-24T03:00:40;0.97;;;0.90;;
9809;SDS011;4944;52.514;13.192;2022-07-24T03:03:07;0.97;;;0.90;;
9809;SDS011;4944;52.514;13.192;2022-07-24T03:05:35;2.53;;;1.30;;
9809;SDS011;4944;52.514;13.192;2022-07-24T03:08:02;0.90;;;0.90;;
9809;SDS011;4944;52.514;13.192;2022-07-24T03:10:29;1.40;;;0.70;;
9809;SDS011;4944;52.514;13.192;2022-07-24T03:12:56;1.20;;;1.10;;
9809;SDS011;4944;52.514;13.192;2022-07-24T03:15:22;1.20;;;1.20;;
9809;SDS011;4944;52.514;13.192;2022-07-24T03:17:49;1.23;;;1.13;;
9809;SDS011;4944;52.514;13.192;2022-07-24T03:20:17;1.10;;;1.03;;
9809;SDS011;4944;52.514;13.192;2022-07-24T03:22:46;2.17;;;1.00;;
9809;SDS011;4944;52.514;13.192;2022-07-24T03:25:13;1.53;;;1.10;;
9809;SDS011;4944;52.514;13.192;2022-07-24T03:27:41;1.43;;;1.20;;
9809;SDS011;4944;52.514;13.192;2022-07-24T03:30:08;2.97;;;1.03;;
9809;SDS011;4944;52.514;13.192;2022-07-24T03:32:36;0.90;;;0.90;;
9809;SDS011;4944;52.514;13.192;2022-07-24T03:35:03;1.40;;;1.30;;
9809;SDS011;4944;52.514;13.192;2022-07-24T03:37:30;1.30;;;1.20;;
9809;SDS011;4944;52.514;13.192;2022-07-24T03:39:58;1.30;;;1.10;;
9809;SDS011;4944;52.514;13.192;2022-07-24T03:42:26;0.80;;;0.80;;
9809;SDS011;4944;52.514;13.192;2022-07-24T03:44:53;1.17;;;1.10;;
9809;SDS011;4944;52.514;13.192;2022-07-24T03:47:20;0.97;;;0.97;;
9809;SDS011;4944;52.514;13.192;2022-07-24T03:49:47;1.23;;;1.10;;
9809;SDS011;4944;52.514;13.192;2022-07-24T03:52:13;1.67;;;1.37;;
9809;SDS011;4944;52.514;13.192;2022-07-24T03:54:40;1.00;;;1.00;;
9809;SDS011;4944;52.514;13.192;2022-07-24T03:57:08;1.23;;;1.20;;
9809;SDS011;4944;52.514;13.192;2022-07-24T03:59:35;1.20;;;1.10;;
9809;SDS011;4944;52.514;13.192;2022-07-24T04:02:02;1.23;;;1.17;;
9809;SDS011;4944;52.514;13.192;2022-07-24T04:04:29;1.03;;;1.03;;
9809;SDS011;4944;52.514;13.192;2022-07-24T04:06:56;1.73;;;1.63;;
9809;SDS011;4944;52.514;13.192;2022-07-24T04:09:23;2.27;;;1.10;;
9809;SDS011;4944;52.514;13.192;2022-07-24T04:11:49;1.20;;;1.20;;
9809;SDS011;4944;52.514;13.192;2022-07-24T04:14:18;1.37;;;1.27;;
9809;SDS011;4944;52.514;13.192;2022-07-24T04:16:44;1.13;;;1.10;;
9809;SDS011;4944;52.514;13.192;2022-07-24T04:19:12;1.40;;;1.20;;
9809;SDS011;4944;52.514;13.192;2022-07-24T04:21:39;1.30;;;1.30;;
9809;SDS011;4944;52.514;13.192;2022-07-24T04:24:06;1.10;;;1.10;;
9809;SDS011;4944;52.514;13.192;2022-07-24T04:26:33;2.07;;;1.43;;
9809;SDS011;4944;52.514;13.192;2022-07-24T04:29:00;1.40;;;1.30;;
9809;SDS011;4944;52.514;13.192;2022-07-24T04:31:28;3.00;;;1.30;;
9809;SDS011;4944;52.514;13.192;2022-07-24T04:33:55;1.07;;;1.07;;
9809;SDS011;4944;52.514;13.192;2022-07-24T04:36:22;1.73;;;1.40;;
9809;SDS011;4944;52.514;13.192;2022-07-24T04:38:48;1.60;;;1.30;;
9809;SDS011;4944;52.514;13.192;2022-07-24T04:41:15;1.33;;;1.23;;
9809;SDS011;4944;52.514;13.192;2022-07-24T04:43:42;1.80;;;1.50;;
9809;SDS011;4944;52.514;13.192;2022-07-24T04:46:09;1.37;;;1.33;;
9809;SDS011;4944;52.514;13.192;2022-07-24T04:48:37;1.87;;;1.20;;
9809;SDS011;4944;52.514;13.192;2022-07-24T04:51:07;0.93;;;0.93;;
9809;SDS011;4944;52.514;13.192;2022-07-24T04:53:34;2.20;;;1.30;;
9809;SDS011;4944;52.514;13.192;2022-07-24T04:56:07;1.30;;;1.20;;
9809;SDS011;4944;52.514;13.192;2022-07-24T04:58:34;2.20;;;1.30;;
9809;SDS011;4944;52.514;13.192;2022-07-24T05:01:08;1.27;;;1.17;;
9809;SDS011;4944;52.514;13.192;2022-07-24T05:03:35;1.37;;;1.27;;
9809;SDS011;4944;52.514;13.192;2022-07-24T05:06:06;1.93;;;1.00;;
9809;SDS011;4944;52.514;13.192;2022-07-24T05:08:35;1.30;;;1.20;;
9809;SDS011;4944;52.514;13.192;2022-07-24T05:11:06;1.87;;;1.20;;
9809;SDS011;4944;52.514;13.192;2022-07-24T05:13:32;1.20;;;1.10;;
9809;SDS011;4944;52.514;13.192;2022-07-24T05:15:59;1.30;;;1.20;;
9809;SDS011;4944;52.514;13.192;2022-07-24T05:18:26;1.23;;;1.13;;
9809;SDS011;4944;52.514;13.192;2022-07-24T05:20:53;2.83;;;1.20;;
9809;SDS011;4944;52.514;13.192;2022-07-24T05:23:21;1.90;;;1.13;;
9809;SDS011;4944;52.514;13.192;2022-07-24T05:25:48;1.00;;;1.00;;
9809;SDS011;4944;52.514;13.192;2022-07-24T05:28:15;1.10;;;1.00;;
9809;SDS011;4944;52.514;13.192;2022-07-24T05:30:41;2.70;;;1.20;;
9809;SDS011;4944;52.514;13.192;2022-07-24T05:33:08;2.17;;;0.90;;
9809;SDS011;4944;52.514;13.192;2022-07-24T05:35:35;2.87;;;1.07;;
9809;SDS011;4944;52.514;13.192;2022-07-24T05:38:02;0.97;;;0.97;;
9809;SDS011;4944;52.514;13.192;2022-07-24T05:40:31;2.83;;;1.10;;
9809;SDS011;4944;52.514;13.192;2022-07-24T05:42:58;1.23;;;1.13;;
9809;SDS011;4944;52.514;13.192;2022-07-24T05:45:24;1.57;;;1.00;;
9809;SDS011;4944;52.514;13.192;2022-07-24T05:47:51;1.47;;;0.83;;
9809;SDS011;4944;52.514;13.192;2022-07-24T05:50:18;1.20;;;1.10;;
9809;SDS011;4944;52.514;13.192;2022-07-24T05:52:45;1.87;;;1.10;;
9809;SDS011;4944;52.514;13.192;2022-07-24T05:55:11;1.20;;;1.20;;
9809;SDS011;4944;52.514;13.192;2022-07-24T05:57:39;1.40;;;1.20;;
9809;SDS011;4944;52.514;13.192;2022-07-24T06:00:07;1.20;;;1.10;;
9809;SDS011;4944;52.514;13.192;2022-07-24T06:02:34;0.97;;;0.90;;
9809;SDS011;4944;52.514;13.192;2022-07-24T06:05:01;1.57;;;1.10;;
9809;SDS011;4944;52.514;13.192;2022-07-24T06:07:28;1.20;;;1.10;;
9809;SDS011;4944;52.514;13.192;2022-07-24T06:09:54;1.20;;;1.10;;
9809;SDS011;4944;52.514;13.192;2022-07-24T06:12:21;1.00;;;1.00;;
9809;SDS011;4944;52.514;13.192;2022-07-24T06:14:49;1.73;;;0.80;;
9809;SDS011;4944;52.514;13.192;2022-07-24T06:17:16;1.97;;;0.80;;
9809;SDS011;4944;52.514;13.192;2022-07-24T06:19:43;1.00;;;0.90;;
9809;SDS011;4944;52.514;13.192;2022-07-24T06:22:09;2.00;;;1.00;;
9809;SDS011;4944;52.514;13.192;2022-07-24T06:24:36;1.77;;;1.20;;
9809;SDS011;4944;52.514;13.192;2022-07-24T06:27:03;1.43;;;0.97;;
9809;SDS011;4944;52.514;13.192;2022-07-24T06:29:30;1.27;;;1.03;;
9809;SDS011;4944;52.514;13.192;2022-07-24T06:31:58;2.10;;;0.77;;
9809;SDS011;4944;52.514;13.192;2022-07-24T06:34:25;1.00;;;0.80;;
9809;SDS011;4944;52.514;13.192;2022-07-24T06:36:52;2.10;;;1.00;;
9809;SDS011;4944;52.514;13.192;2022-07-24T06:39:19;1.10;;;1.00;;
9809;SDS011;4944;52.514;13.192;2022-07-24T06:41:45;1.23;;;1.13;;
9809;SDS011;4944;52.514;13.192;2022-07-24T06:44:13;1.10;;;1.10;;
9809;SDS011;4944;52.514;13.192;2022-07-24T06:46:40;1.77;;;1.00;;
9809;SDS011;4944;52.514;13.192;2022-07-24T06:49:11;1.00;;;0.90;;
9809;SDS011;4944;52.514;13.192;2022-07-24T06:51:37;1.23;;;0.73;;
9809;SDS011;4944;52.514;13.192;2022-07-24T06:54:04;1.10;;;1.00;;
9809;SDS011;4944;52.514;13.192;2022-07-24T06:56:31;1.27;;;1.20;;
9809;SDS011;4944;52.514;13.192;2022-07-24T06:58:58;1.40;;;1.13;;
9809;SDS011;4944;52.514;13.192;2022-07-24T07:01:25;1.40;;;1.07;;
9809;SDS011;4944;52.514;13.192;2022-07-24T07:03:52;2.60;;;1.20;;
9809;SDS011;4944;52.514;13.192;2022-07-24T07:06:20;1.43;;;1.00;;
9809;SDS011;4944;52.514;13.192;2022-07-24T07:08:47;1.77;;;1.10;;
9809;SDS011;4944;52.514;13.192;2022-07-24T07:11:14;1.50;;;1.30;;
9809;SDS011;4944;52.514;13.192;2022-07-24T07:13:41;1.60;;;1.00;;
9809;SDS011;4944;52.514;13.192;2022-07-24T07:16:08;1.33;;;1.23;;
9809;SDS011;4944;52.514;13.192;2022-07-24T07:18:35;6.50;;;5.93;;
9809;SDS011;4944;52.514;13.192;2022-07-24T07:21:02;5.43;;;5.03;;
9809;SDS011;4944;52.514;13.192;2022-07-24T07:23:34;3.20;;;1.67;;
9809;SDS011;4944;52.514;13.192;2022-07-24T07:26:01;2.40;;;1.10;;
9809;SDS011;4944;52.514;13.192;2022-07-24T07:28:35;1.20;;;1.10;;
9809;SDS011;4944;52.514;13.192;2022-07-24T07:31:04;1.07;;;1.00;;
9809;SDS011;4944;52.514;13.192;2022-07-24T07:33:31;1.80;;;1.00;;
9809;SDS011;4944;52.514;13.192;2022-07-24T07:35:59;1.07;;;1.07;;
9809;SDS011;4944;52.514;13.192;2022-07-24T07:38:26;1.67;;;1.10;;
9809;SDS011;4944;52.514;13.192;2022-07-24T07:40:54;1.40;;;1.27;;
9809;SDS011;4944;52.514;13.192;2022-07-24T07:43:21;1.10;;;0.80;;
9809;SDS011;4944;52.514;13.192;2022-07-24T07:45:48;1.67;;;0.83;;
9809;SDS011;4944;52.514;13.192;2022-07-24T07:48:15;1.13;;;0.90;;
9809;SDS011;4944;52.514;13.192;2022-07-24T07:50:45;3.77;;;1.07;;
9809;SDS011;4944;52.514;13.192;2022-07-24T07:53:12;1.60;;;1.00;;
9809;SDS011;4944;52.514;13.192;2022-07-24T07:55:39;1.40;;;0.80;;
9809;SDS011;4944;52.514;13.192;2022-07-24T07:58:07;1.33;;;1.23;;
9809;SDS011;4944;52.514;13.192;2022-07-24T08:00:35;1.47;;;1.10;;
9809;SDS011;4944;52.514;13.192;2022-07-24T08:03:02;0.80;;;0.80;;
9809;SDS011;4944;52.514;13.192;2022-07-24T08:05:29;1.33;;;0.90;;
9809;SDS011;4944;52.514;13.192;2022-07-24T08:07:56;1.60;;;1.10;;
9809;SDS011;4944;52.514;13.192;2022-07-24T08:10:23;1.13;;;0.90;;
9809;SDS011;4944;52.514;13.192;2022-07-24T08:12:49;3.60;;;1.20;;
9809;SDS011;4944;52.514;13.192;2022-07-24T08:15:18;2.20;;;1.50;;
9809;SDS011;4944;52.514;13.192;2022-07-24T08:17:45;0.90;;;0.90;;
9809;SDS011;4944;52.514;13.192;2022-07-24T08:20:16;0.70;;;0.70;;
9809;SDS011;4944;52.514;13.192;2022-07-24T08:22:44;1.40;;;1.00;;
9809;SDS011;4944;52.514;13.192;2022-07-24T08:25:11;1.50;;;0.93;;
9809;SDS011;4944;52.514;13.192;2022-07-24T08:27:38;1.73;;;1.00;;
9809;SDS011;4944;52.514;13.192;2022-07-24T08:30:05;2.87;;;1.07;;
9809;SDS011;4944;52.514;13.192;2022-07-24T08:32:34;1.23;;;1.03;;
9809;SDS011;4944;52.514;13.192;2022-07-24T08:35:03;1.10;;;1.00;;
9809;SDS011;4944;52.514;13.192;2022-07-24T08:37:34;2.10;;;0.90;;
9809;SDS011;4944;52.514;13.192;2022-07-24T08:40:01;1.53;;;1.00;;
9809;SDS011;4944;52.514;13.192;2022-07-24T08:42:29;1.57;;;1.20;;
9809;SDS011;4944;52.514;13.192;2022-07-24T08:44:56;1.37;;;1.10;;
9809;SDS011;4944;52.514;13.192;2022-07-24T08:47:22;1.67;;;1.13;;
9809;SDS011;4944;52.514;13.192;2022-07-24T08:49:53;2.13;;;1.23;;
9809;SDS011;4944;52.514;13.192;2022-07-24T08:52:20;3.07;;;1.30;;
9809;SDS011;4944;52.514;13.192;2022-07-24T08:54:48;2.40;;;1.17;;
9809;SDS011;4944;52.514;13.192;2022-07-24T08:57:15;1.87;;;1.30;;
9809;SDS011;4944;52.514;13.192;2022-07-24T08:59:42;1.40;;;1.30;;
9809;SDS011;4944;52.514;13.192;2022-07-24T09:02:09;1.20;;;1.07;;
9809;SDS011;4944;52.514;13.192;2022-07-24T09:04:36;1.73;;;0.90;;
9809;SDS011;4944;52.514;13.192;2022-07-24T09:07:06;1.47;;;1.00;;
9809;SDS011;4944;52.514;13.192;2022-07-24T09:09:35;1.83;;;1.03;;
9809;SDS011;4944;52.514;13.192;2022-07-24T09:12:02;1.30;;;1.10;;
9809;SDS011;4944;52.514;13.192;2022-07-24T09:14:31;1.60;;;1.07;;
9809;SDS011;4944;52.514;13.192;2022-07-24T09:17:01;1.40;;;1.30;;
9809;SDS011;4944;52.514;13.192;2022-07-24T09:19:31;1.60;;;1.30;;
9809;SDS011;4944;52.514;13.192;2022-07-24T09:22:26;1.20;;;1.20;;
9809;SDS011;4944;52.514;13.192;2022-07-24T09:25:05;1.40;;;1.30;;
9809;SDS011;4944;52.514;13.192;2022-07-24T09:27:38;2.43;;;1.33;;
9809;SDS011;4944;52.514;13.192;2022-07-24T09:30:07;1.80;;;1.13;;
9809;SDS011;4944;52.514;13.192;2022-07-24T09:32:35;1.67;;;1.30;;
9809;SDS011;4944;52.514;13.192;2022-07-24T09:35:02;1.88;;;1.20;;
9809;SDS011;4944;52.514;13.192;2022-07-24T09:37:31;1.20;;;1.20;;
9809;SDS011;4944;52.514;13.192;2022-07-24T09:40:08;1.60;;;1.20;;
9809;SDS011;4944;52.514;13.192;2022-07-24T09:42:36;1.60;;;1.23;;
9809;SDS011;4944;52.514;13.192;2022-07-24T09:45:07;2.73;;;1.30;;
9809;SDS011;4944;52.514;13.192;2022-07-24T09:47:37;1.73;;;1.00;;
9809;SDS011;4944;52.514;13.192;2022-07-24T09:50:11;1.27;;;1.17;;
9809;SDS011;4944;52.514;13.192;2022-07-24T09:52:42;0.85;;;0.85;;
9809;SDS011;4944;52.514;13.192;2022-07-24T09:55:19;2.88;;;1.40;;
9809;SDS011;4944;52.514;13.192;2022-07-24T09:57:47;1.48;;;1.38;;
9809;SDS011;4944;52.514;13.192;2022-07-24T10:00:14;1.45;;;1.35;;
9809;SDS011;4944;52.514;13.192;2022-07-24T10:02:43;1.50;;;1.40;;
9809;SDS011;4944;52.514;13.192;2022-07-24T10:05:10;1.10;;;1.10;;
9809;SDS011;4944;52.514;13.192;2022-07-24T10:07:39;1.23;;;1.13;;
9809;SDS011;4944;52.514;13.192;2022-07-24T10:10:09;1.60;;;1.08;;
9809;SDS011;4944;52.514;13.192;2022-07-24T10:12:36;1.40;;;1.30;;
9809;SDS011;4944;52.514;13.192;2022-07-24T10:15:04;1.40;;;1.30;;
9809;SDS011;4944;52.514;13.192;2022-07-24T10:17:34;1.45;;;1.35;;
9809;SDS011;4944;52.514;13.192;2022-07-24T10:20:27;2.63;;;1.40;;
9809;SDS011;4944;52.514;13.192;2022-07-24T10:23:05;3.13;;;1.27;;
9809;SDS011;4944;52.514;13.192;2022-07-24T10:25:38;1.50;;;1.40;;
9809;SDS011;4944;52.514;13.192;2022-07-24T10:28:19;2.53;;;1.33;;
9809;SDS011;4944;52.514;13.192;2022-07-24T10:31:06;1.75;;;1.52;;
9809;SDS011;4944;52.514;13.192;2022-07-24T10:33:35;1.05;;;1.05;;
9809;SDS011;4944;52.514;13.192;2022-07-24T10:36:13;1.60;;;1.50;;
9809;SDS011;4944;52.514;13.192;2022-07-24T10:38:48;1.83;;;1.40;;
9809;SDS011;4944;52.514;13.192;2022-07-24T10:41:21;2.30;;;1.38;;
9809;SDS011;4944;52.514;13.192;2022-07-24T10:46:58;1.77;;;1.60;;
9809;SDS011;4944;52.514;13.192;2022-07-24T10:49:36;2.80;;;1.73;;
9809;SDS011;4944;52.514;13.192;2022-07-24T10:52:11;1.50;;;1.40;;
9809;SDS011;4944;52.514;13.192;2022-07-24T10:54:49;1.60;;;1.50;;
9809;SDS011;4944;52.514;13.192;2022-07-24T10:57:48;1.60;;;1.50;;
9809;SDS011;4944;52.514;13.192;2022-07-24T11:00:21;1.80;;;1.70;;
9809;SDS011;4944;52.514;13.192;2022-07-24T11:02:54;3.08;;;1.80;;
9809;SDS011;4944;52.514;13.192;2022-07-24T11:05:23;1.58;;;1.48;;
9809;SDS011;4944;52.514;13.192;2022-07-24T11:11:09;2.90;;;1.95;;
9809;SDS011;4944;52.514;13.192;2022-07-24T11:13:41;2.95;;;1.80;;
9809;SDS011;4944;52.514;13.192;2022-07-24T11:16:28;4.90;;;1.80;;
9809;SDS011;4944;52.514;13.192;2022-07-24T11:22:01;1.58;;;1.48;;
9809;SDS011;4944;52.514;13.192;2022-07-24T11:24:33;1.40;;;1.40;;
9809;SDS011;4944;52.514;13.192;2022-07-24T11:27:05;2.00;;;1.42;;
9809;SDS011;4944;52.514;13.192;2022-07-24T11:29:33;3.08;;;1.52;;
9809;SDS011;4944;52.514;13.192;2022-07-24T11:32:03;1.40;;;1.30;;
9809;SDS011;4944;52.514;13.192;2022-07-24T11:34:32;3.17;;;1.85;;
9809;SDS011;4944;52.514;13.192;2022-07-24T11:37:00;1.65;;;1.38;;
9809;SDS011;4944;52.514;13.192;2022-07-24T11:39:28;2.28;;;1.60;;
9809;SDS011;4944;52.514;13.192;2022-07-24T11:41:57;1.45;;;1.40;;
9809;SDS011;4944;52.514;13.192;2022-07-24T11:44:27;1.63;;;1.52;;
9809;SDS011;4944;52.514;13.192;2022-07-24T11:46:55;1.50;;;1.40;;
9809;SDS011;4944;52.514;13.192;2022-07-24T11:49:23;4.28;;;1.60;;
9809;SDS011;4944;52.514;13.192;2022-07-24T11:51:51;1.63;;;1.52;;
9809;SDS011;4944;52.514;13.192;2022-07-24T11:54:20;1.63;;;1.50;;
9809;SDS011;4944;52.514;13.192;2022-07-24T11:56:49;1.50;;;1.40;;
9809;SDS011;4944;52.514;13.192;2022-07-24T11:59:22;3.83;;;1.63;;
9809;SDS011;4944;52.514;13.192;2022-07-24T12:01:51;1.63;;;1.48;;
9809;SDS011;4944;52.514;13.192;2022-07-24T12:04:21;1.48;;;1.45;;
9809;SDS011;4944;52.514;13.192;2022-07-24T12:06:48;1.67;;;1.25;;
9809;SDS011;4944;52.514;13.192;2022-07-24T12:09:15;1.40;;;1.33;;
9809;SDS011;4944;52.514;13.192;2022-07-24T12:11:42;1.85;;;1.45;;
9809;SDS011;4944;52.514;13.192;2022-07-24T12:14:12;2.03;;;1.33;;
9809;SDS011;4944;52.514;13.192;2022-07-24T12:16:41;1.52;;;1.30;;
9809;SDS011;4944;52.514;13.192;2022-07-24T12:19:13;4.13;;;1.42;;
9809;SDS011;4944;52.514;13.192;2022-07-24T12:21:41;1.83;;;1.38;;
9809;SDS011;4944;52.514;13.192;2022-07-24T12:24:09;1.95;;;1.33;;
9809;SDS011;4944;52.514;13.192;2022-07-24T12:26:47;1.60;;;1.50;;
9809;SDS011;4944;52.514;13.192;2022-07-24T12:29:15;1.30;;;1.20;;
9809;SDS011;4944;52.514;13.192;2022-07-24T12:31:42;1.58;;;1.40;;
9809;SDS011;4944;52.514;13.192;2022-07-24T12:34:09;1.67;;;1.58;;
9809;SDS011;4944;52.514;13.192;2022-07-24T12:36:37;1.40;;;1.30;;
9809;SDS011;4944;52.514;13.192;2022-07-24T12:39:05;4.63;;;1.50;;
9809;SDS011;4944;52.514;13.192;2022-07-24T12:41:40;1.60;;;1.40;;
9809;SDS011;4944;52.514;13.192;2022-07-24T12:44:09;3.05;;;1.30;;
9809;SDS011;4944;52.514;13.192;2022-07-24T12:46:37;1.23;;;1.23;;
9809;SDS011;4944;52.514;13.192;2022-07-24T12:49:05;1.27;;;1.27;;
9809;SDS011;4944;52.514;13.192;2022-07-24T12:51:47;1.27;;;1.20;;
9809;SDS011;4944;52.514;13.192;2022-07-24T12:54:16;1.35;;;1.30;;
9809;SDS011;4944;52.514;13.192;2022-07-24T12:56:44;3.60;;;1.30;;
9809;SDS011;4944;52.514;13.192;2022-07-24T12:59:20;1.33;;;1.33;;
9809;SDS011;4944;52.514;13.192;2022-07-24T13:01:49;1.50;;;1.40;;
9809;SDS011;4944;52.514;13.192;2022-07-24T13:04:18;1.48;;;1.38;;
9809;SDS011;4944;52.514;13.192;2022-07-24T13:06:48;2.08;;;1.38;;
9809;SDS011;4944;52.514;13.192;2022-07-24T13:09:16;1.63;;;1.40;;
9809;SDS011;4944;52.514;13.192;2022-07-24T13:11:45;1.52;;;1.42;;
9809;SDS011;4944;52.514;13.192;2022-07-24T13:14:13;1.50;;;1.40;;
9809;SDS011;4944;52.514;13.192;2022-07-24T13:16:42;1.65;;;1.55;;
9809;SDS011;4944;52.514;13.192;2022-07-24T13:19:10;1.40;;;1.40;;
9809;SDS011;4944;52.514;13.192;2022-07-24T13:21:37;1.52;;;1.45;;
9809;SDS011;4944;52.514;13.192;2022-07-24T13:24:07;4.07;;;1.52;;
9809;SDS011;4944;52.514;13.192;2022-07-24T13:26:35;1.98;;;1.40;;
9809;SDS011;4944;52.514;13.192;2022-07-24T13:29:03;1.52;;;1.40;;
9809;SDS011;4944;52.514;13.192;2022-07-24T13:31:30;2.35;;;1.50;;
9809;SDS011;4944;52.514;13.192;2022-07-24T13:33:57;1.80;;;1.30;;
9809;SDS011;4944;52.514;13.192;2022-07-24T13:36:25;1.50;;;1.40;;
9809;SDS011;4944;52.514;13.192;2022-07-24T13:38:52;1.23;;;1.23;;
9809;SDS011;4944;52.514;13.192;2022-07-24T13:41:20;2.15;;;1.50;;
9809;SDS011;4944;52.514;13.192;2022-07-24T13:43:47;1.90;;;1.80;;
9809;SDS011;4944;52.514;13.192;2022-07-24T13:46:15;3.17;;;1.63;;
9809;SDS011;4944;52.514;13.192;2022-07-24T13:48:43;2.05;;;1.38;;
9809;SDS011;4944;52.514;13.192;2022-07-24T13:51:13;1.55;;;1.40;;
9809;SDS011;4944;52.514;13.192;2022-07-24T13:53:41;1.73;;;1.63;;
9809;SDS011;4944;52.514;13.192;2022-07-24T13:56:08;5.35;;;1.70;;
9809;SDS011;4944;52.514;13.192;2022-07-24T13:58:36;1.77;;;1.35;;
9809;SDS011;4944;52.514;13.192;2022-07-24T14:01:05;1.58;;;1.48;;
9809;SDS011;4944;52.514;13.192;2022-07-24T14:03:32;1.40;;;1.13;;
9809;SDS011;4944;52.514;13.192;2022-07-24T14:06:09;1.33;;;1.23;;
9809;SDS011;4944;52.514;13.192;2022-07-24T14:08:36;1.58;;;1.45;;
9809;SDS011;4944;52.514;13.192;2022-07-24T14:11:07;1.50;;;1.40;;
9809;SDS011;4944;52.514;13.192;2022-07-24T14:13:35;1.10;;;1.10;;
9809;SDS011;4944;52.514;13.192;2022-07-24T14:16:06;1.50;;;1.40;;
9809;SDS011;4944;52.514;13.192;2022-07-24T14:18:33;2.85;;;1.40;;
9809;SDS011;4944;52.514;13.192;2022-07-24T14:21:00;3.53;;;1.23;;
9809;SDS011;4944;52.514;13.192;2022-07-24T14:23:27;1.60;;;1.50;;
9809;SDS011;4944;52.514;13.192;2022-07-24T14:25:53;1.67;;;1.58;;
9809;SDS011;4944;52.514;13.192;2022-07-24T14:28:20;1.45;;;1.38;;
9809;SDS011;4944;52.514;13.192;2022-07-24T14:30:48;2.42;;;1.52;;
9809;SDS011;4944;52.514;13.192;2022-07-24T14:33:15;1.52;;;1.42;;
9809;SDS011;4944;52.514;13.192;2022-07-24T14:35:42;1.45;;;1.35;;
9809;SDS011;4944;52.514;13.192;2022-07-24T14:38:08;1.30;;;1.30;;
9809;SDS011;4944;52.514;13.192;2022-07-24T14:40:35;1.42;;;1.33;;
9809;SDS011;4944;52.514;13.192;2022-07-24T14:43:02;3.17;;;1.27;;
9809;SDS011;4944;52.514;13.192;2022-07-24T14:45:29;1.35;;;1.35;;
9809;SDS011;4944;52.514;13.192;2022-07-24T14:47:57;1.95;;;1.30;;
9809;SDS011;4944;52.514;13.192;2022-07-24T14:50:24;1.88;;;1.38;;
9809;SDS011;4944;52.514;13.192;2022-07-24T14:52:51;4.05;;;1.50;;
9809;SDS011;4944;52.514;13.192;2022-07-24T14:55:18;4.07;;;3.58;;
9809;SDS011;4944;52.514;13.192;2022-07-24T14:57:44;20.38;;;2.63;;
9809;SDS011;4944;52.514;13.192;2022-07-24T15:00:11;1.35;;;1.27;;
9809;SDS011;4944;52.514;13.192;2022-07-24T15:02:39;1.20;;;1.20;;
9809;SDS011;4944;52.514;13.192;2022-07-24T15:05:08;1.33;;;1.33;;
9809;SDS011;4944;52.514;13.192;2022-07-24T15:07:35;1.23;;;1.13;;
9809;SDS011;4944;52.514;13.192;2022-07-24T15:10:04;1.60;;;1.50;;
9809;SDS011;4944;52.514;13.192;2022-07-24T15:12:32;1.25;;;1.25;;
9809;SDS011;4944;52.514;13.192;2022-07-24T15:14:58;3.20;;;1.40;;
9809;SDS011;4944;52.514;13.192;2022-07-24T15:17:25;2.25;;;1.40;;